sensor_id;sensor_type;location;lat;lon;timestamp;P1;durP1;ratioP1;P2;durP2;ratioP2
56419;SDS011;42323;52.170;7.538;2024-02-28T00:00:11;159.40;;;149.02;;
56419;SDS011;42323;52.170;7.538;2024-02-28T00:02:38;168.73;;;157.75;;
56419;SDS011;42323;52.170;7.538;2024-02-28T00:05:04;176.30;;;164.73;;
56419;SDS011;42323;52.170;7.538;2024-02-28T00:07:31;165.27;;;154.75;;
56419;SDS011;42323;52.170;7.538;2024-02-28T00:09:58;164.10;;;153.48;;
56419;SDS011;42323;52.170;7.538;2024-02-28T00:12:24;158.20;;;147.98;;
56419;SDS011;42323;52.170;7.538;2024-02-28T00:14:51;165.80;;;154.65;;
56419;SDS011;42323;52.170;7.538;2024-02-28T00:17:18;153.43;;;143.52;;
56419;SDS011;42323;52.170;7.538;2024-02-28T00:19:44;154.55;;;144.65;;
56419;SDS011;42323;52.170;7.538;2024-02-28T00:22:11;155.77;;;145.65;;
56419;SDS011;42323;52.170;7.538;2024-02-28T00:24:37;150.57;;;140.88;;
56419;SDS011;42323;52.170;7.538;2024-02-28T00:27:03;148.68;;;138.82;;
56419;SDS011;42323;52.170;7.538;2024-02-28T00:29:30;148.57;;;138.82;;
56419;SDS011;42323;52.170;7.538;2024-02-28T00:34:44;145.13;;;136.18;;
56419;SDS011;42323;52.170;7.538;2024-02-28T00:37:11;147.57;;;138.18;;
56419;SDS011;42323;52.170;7.538;2024-02-28T00:39:37;147.73;;;138.48;;
56419;SDS011;42323;52.170;7.538;2024-02-28T00:42:04;148.13;;;138.20;;
56419;SDS011;42323;52.170;7.538;2024-02-28T00:44:30;144.23;;;135.07;;
56419;SDS011;42323;52.170;7.538;2024-02-28T00:46:57;143.85;;;134.18;;
56419;SDS011;42323;52.170;7.538;2024-02-28T00:49:23;141.27;;;132.52;;
56419;SDS011;42323;52.170;7.538;2024-02-28T00:51:49;142.65;;;133.85;;
56419;SDS011;42323;52.170;7.538;2024-02-28T00:54:16;144.15;;;135.13;;
56419;SDS011;42323;52.170;7.538;2024-02-28T00:56:43;143.82;;;134.85;;
56419;SDS011;42323;52.170;7.538;2024-02-28T00:59:09;142.38;;;133.50;;
56419;SDS011;42323;52.170;7.538;2024-02-28T01:01:40;143.07;;;134.10;;
56419;SDS011;42323;52.170;7.538;2024-02-28T01:04:06;147.70;;;137.70;;
56419;SDS011;42323;52.170;7.538;2024-02-28T01:06:33;149.25;;;138.40;;
56419;SDS011;42323;52.170;7.538;2024-02-28T01:09:00;143.15;;;133.95;;
56419;SDS011;42323;52.170;7.538;2024-02-28T01:11:26;137.18;;;128.50;;
56419;SDS011;42323;52.170;7.538;2024-02-28T01:13:53;141.98;;;132.90;;
56419;SDS011;42323;52.170;7.538;2024-02-28T01:16:19;138.57;;;129.77;;
56419;SDS011;42323;52.170;7.538;2024-02-28T01:18:46;138.27;;;129.63;;
56419;SDS011;42323;52.170;7.538;2024-02-28T01:21:12;143.32;;;133.65;;
56419;SDS011;42323;52.170;7.538;2024-02-28T01:23:39;138.57;;;129.98;;
56419;SDS011;42323;52.170;7.538;2024-02-28T01:26:05;140.02;;;130.90;;
56419;SDS011;42323;52.170;7.538;2024-02-28T01:28:32;138.23;;;129.73;;
56419;SDS011;42323;52.170;7.538;2024-02-28T01:30:58;139.32;;;130.65;;
56419;SDS011;42323;52.170;7.538;2024-02-28T01:33:26;139.95;;;130.73;;
56419;SDS011;42323;52.170;7.538;2024-02-28T01:35:53;139.30;;;130.73;;
56419;SDS011;42323;52.170;7.538;2024-02-28T01:38:22;143.18;;;134.20;;
56419;SDS011;42323;52.170;7.538;2024-02-28T01:40:49;144.32;;;135.02;;
56419;SDS011;42323;52.170;7.538;2024-02-28T01:43:15;141.10;;;132.32;;
56419;SDS011;42323;52.170;7.538;2024-02-28T01:45:43;140.35;;;131.70;;
56419;SDS011;42323;52.170;7.538;2024-02-28T01:48:10;142.48;;;133.43;;
56419;SDS011;42323;52.170;7.538;2024-02-28T01:50:38;143.38;;;134.52;;
56419;SDS011;42323;52.170;7.538;2024-02-28T01:53:05;144.80;;;135.57;;
56419;SDS011;42323;52.170;7.538;2024-02-28T01:55:33;143.00;;;133.77;;
56419;SDS011;42323;52.170;7.538;2024-02-28T01:58:00;143.40;;;134.50;;
56419;SDS011;42323;52.170;7.538;2024-02-28T02:00:26;148.73;;;138.88;;
56419;SDS011;42323;52.170;7.538;2024-02-28T02:02:53;147.95;;;138.10;;
56419;SDS011;42323;52.170;7.538;2024-02-28T02:05:20;145.90;;;136.32;;
56419;SDS011;42323;52.170;7.538;2024-02-28T02:07:48;144.32;;;135.13;;
56419;SDS011;42323;52.170;7.538;2024-02-28T02:10:15;149.10;;;139.27;;
56419;SDS011;42323;52.170;7.538;2024-02-28T02:12:41;146.13;;;136.88;;
56419;SDS011;42323;52.170;7.538;2024-02-28T02:15:07;147.05;;;137.45;;
56419;SDS011;42323;52.170;7.538;2024-02-28T02:17:34;146.52;;;137.25;;
56419;SDS011;42323;52.170;7.538;2024-02-28T02:20:00;144.45;;;135.27;;
56419;SDS011;42323;52.170;7.538;2024-02-28T02:22:27;144.68;;;135.48;;
56419;SDS011;42323;52.170;7.538;2024-02-28T02:24:56;139.68;;;131.18;;
56419;SDS011;42323;52.170;7.538;2024-02-28T02:27:23;143.60;;;134.57;;
56419;SDS011;42323;52.170;7.538;2024-02-28T02:29:50;142.75;;;133.85;;
56419;SDS011;42323;52.170;7.538;2024-02-28T02:32:16;141.30;;;132.05;;
56419;SDS011;42323;52.170;7.538;2024-02-28T02:34:43;140.05;;;131.43;;
56419;SDS011;42323;52.170;7.538;2024-02-28T02:37:09;141.65;;;132.85;;
56419;SDS011;42323;52.170;7.538;2024-02-28T02:39:36;141.88;;;132.90;;
56419;SDS011;42323;52.170;7.538;2024-02-28T02:42:02;142.55;;;133.45;;
56419;SDS011;42323;52.170;7.538;2024-02-28T02:44:29;142.55;;;133.48;;
56419;SDS011;42323;52.170;7.538;2024-02-28T02:46:55;143.55;;;134.30;;
56419;SDS011;42323;52.170;7.538;2024-02-28T02:49:22;144.10;;;134.80;;
56419;SDS011;42323;52.170;7.538;2024-02-28T02:51:48;141.25;;;132.43;;
56419;SDS011;42323;52.170;7.538;2024-02-28T02:54:15;144.95;;;135.50;;
56419;SDS011;42323;52.170;7.538;2024-02-28T02:56:41;141.18;;;132.25;;
56419;SDS011;42323;52.170;7.538;2024-02-28T02:59:11;139.70;;;131.10;;
56419;SDS011;42323;52.170;7.538;2024-02-28T03:01:38;143.45;;;134.32;;
56419;SDS011;42323;52.170;7.538;2024-02-28T03:04:06;146.15;;;132.27;;
56419;SDS011;42323;52.170;7.538;2024-02-28T03:06:32;143.30;;;133.90;;
56419;SDS011;42323;52.170;7.538;2024-02-28T03:08:59;139.05;;;130.25;;
56419;SDS011;42323;52.170;7.538;2024-02-28T03:11:25;140.77;;;131.73;;
56419;SDS011;42323;52.170;7.538;2024-02-28T03:13:51;142.73;;;133.70;;
56419;SDS011;42323;52.170;7.538;2024-02-28T03:16:18;146.75;;;137.00;;
56419;SDS011;42323;52.170;7.538;2024-02-28T03:18:44;142.40;;;133.45;;
56419;SDS011;42323;52.170;7.538;2024-02-28T03:21:11;147.85;;;137.95;;
56419;SDS011;42323;52.170;7.538;2024-02-28T03:23:37;146.95;;;137.73;;
56419;SDS011;42323;52.170;7.538;2024-02-28T03:26:04;148.23;;;138.77;;
56419;SDS011;42323;52.170;7.538;2024-02-28T03:28:30;143.57;;;134.50;;
56419;SDS011;42323;52.170;7.538;2024-02-28T03:30:56;142.45;;;133.27;;
56419;SDS011;42323;52.170;7.538;2024-02-28T03:33:23;144.55;;;135.35;;
56419;SDS011;42323;52.170;7.538;2024-02-28T03:35:51;150.05;;;138.50;;
56419;SDS011;42323;52.170;7.538;2024-02-28T03:38:17;144.68;;;135.52;;
56419;SDS011;42323;52.170;7.538;2024-02-28T03:40:44;143.55;;;134.38;;
56419;SDS011;42323;52.170;7.538;2024-02-28T03:43:10;147.20;;;137.48;;
56419;SDS011;42323;52.170;7.538;2024-02-28T03:45:39;145.60;;;136.20;;
56419;SDS011;42323;52.170;7.538;2024-02-28T03:48:05;143.20;;;133.80;;
56419;SDS011;42323;52.170;7.538;2024-02-28T03:50:32;147.48;;;137.77;;
56419;SDS011;42323;52.170;7.538;2024-02-28T03:52:58;141.07;;;132.32;;
56419;SDS011;42323;52.170;7.538;2024-02-28T03:55:25;151.45;;;140.60;;
56419;SDS011;42323;52.170;7.538;2024-02-28T03:57:51;143.98;;;134.77;;
56419;SDS011;42323;52.170;7.538;2024-02-28T04:00:18;146.60;;;136.70;;
56419;SDS011;42323;52.170;7.538;2024-02-28T04:02:45;143.50;;;134.30;;
56419;SDS011;42323;52.170;7.538;2024-02-28T04:05:11;140.25;;;131.00;;
56419;SDS011;42323;52.170;7.538;2024-02-28T04:07:38;145.57;;;136.18;;
56419;SDS011;42323;52.170;7.538;2024-02-28T04:10:04;147.35;;;137.68;;
56419;SDS011;42323;52.170;7.538;2024-02-28T04:12:31;148.55;;;138.65;;
56419;SDS011;42323;52.170;7.538;2024-02-28T04:14:58;149.57;;;139.80;;
56419;SDS011;42323;52.170;7.538;2024-02-28T04:17:24;147.82;;;138.05;;
56419;SDS011;42323;52.170;7.538;2024-02-28T04:19:51;147.05;;;137.60;;
56419;SDS011;42323;52.170;7.538;2024-02-28T04:22:17;149.35;;;139.18;;
56419;SDS011;42323;52.170;7.538;2024-02-28T04:24:44;148.30;;;138.80;;
56419;SDS011;42323;52.170;7.538;2024-02-28T04:27:10;145.57;;;135.82;;
56419;SDS011;42323;52.170;7.538;2024-02-28T04:29:37;145.73;;;135.38;;
56419;SDS011;42323;52.170;7.538;2024-02-28T04:32:04;149.07;;;136.93;;
56419;SDS011;42323;52.170;7.538;2024-02-28T04:34:31;148.27;;;137.02;;
56419;SDS011;42323;52.170;7.538;2024-02-28T04:36:57;142.73;;;133.45;;
56419;SDS011;42323;52.170;7.538;2024-02-28T04:39:23;146.95;;;137.10;;
56419;SDS011;42323;52.170;7.538;2024-02-28T04:41:50;149.00;;;138.93;;
56419;SDS011;42323;52.170;7.538;2024-02-28T04:44:16;142.00;;;132.77;;
56419;SDS011;42323;52.170;7.538;2024-02-28T04:46:43;139.77;;;130.70;;
56419;SDS011;42323;52.170;7.538;2024-02-28T04:49:09;143.48;;;133.68;;
56419;SDS011;42323;52.170;7.538;2024-02-28T04:51:36;144.50;;;134.65;;
56419;SDS011;42323;52.170;7.538;2024-02-28T04:54:02;141.13;;;131.93;;
56419;SDS011;42323;52.170;7.538;2024-02-28T04:56:29;144.30;;;134.07;;
56419;SDS011;42323;52.170;7.538;2024-02-28T04:58:55;143.63;;;134.05;;
56419;SDS011;42323;52.170;7.538;2024-02-28T05:01:21;144.40;;;134.73;;
56419;SDS011;42323;52.170;7.538;2024-02-28T05:03:49;146.93;;;136.63;;
56419;SDS011;42323;52.170;7.538;2024-02-28T05:06:15;141.55;;;131.80;;
56419;SDS011;42323;52.170;7.538;2024-02-28T05:08:42;144.30;;;134.32;;
56419;SDS011;42323;52.170;7.538;2024-02-28T05:11:08;152.00;;;137.20;;
56419;SDS011;42323;52.170;7.538;2024-02-28T05:13:35;145.20;;;134.95;;
56419;SDS011;42323;52.170;7.538;2024-02-28T05:16:01;143.73;;;133.75;;
56419;SDS011;42323;52.170;7.538;2024-02-28T05:18:28;146.77;;;136.43;;
56419;SDS011;42323;52.170;7.538;2024-02-28T05:20:55;141.48;;;132.05;;
56419;SDS011;42323;52.170;7.538;2024-02-28T05:23:21;142.38;;;132.23;;
56419;SDS011;42323;52.170;7.538;2024-02-28T05:25:47;142.63;;;133.13;;
56419;SDS011;42323;52.170;7.538;2024-02-28T05:28:14;143.02;;;133.18;;
56419;SDS011;42323;52.170;7.538;2024-02-28T05:30:40;143.73;;;133.65;;
56419;SDS011;42323;52.170;7.538;2024-02-28T05:33:12;140.00;;;130.85;;
56419;SDS011;42323;52.170;7.538;2024-02-28T05:35:38;141.65;;;132.27;;
56419;SDS011;42323;52.170;7.538;2024-02-28T05:38:05;137.82;;;128.55;;
56419;SDS011;42323;52.170;7.538;2024-02-28T05:40:31;137.20;;;128.23;;
56419;SDS011;42323;52.170;7.538;2024-02-28T05:42:58;138.43;;;129.25;;
56419;SDS011;42323;52.170;7.538;2024-02-28T05:45:24;144.13;;;133.35;;
56419;SDS011;42323;52.170;7.538;2024-02-28T05:47:51;138.55;;;129.35;;
56419;SDS011;42323;52.170;7.538;2024-02-28T05:50:17;143.25;;;133.25;;
56419;SDS011;42323;52.170;7.538;2024-02-28T05:52:44;138.93;;;129.52;;
56419;SDS011;42323;52.170;7.538;2024-02-28T05:55:10;145.02;;;134.55;;
56419;SDS011;42323;52.170;7.538;2024-02-28T05:57:37;138.15;;;128.30;;
56419;SDS011;42323;52.170;7.538;2024-02-28T06:00:04;138.98;;;129.73;;
56419;SDS011;42323;52.170;7.538;2024-02-28T06:02:36;110.00;;;102.55;;
56419;SDS011;42323;52.170;7.538;2024-02-28T06:05:03;98.35;;;91.88;;
56419;SDS011;42323;52.170;7.538;2024-02-28T06:07:30;95.60;;;89.07;;
56419;SDS011;42323;52.170;7.538;2024-02-28T06:09:57;98.78;;;92.15;;
56419;SDS011;42323;52.170;7.538;2024-02-28T06:12:23;96.18;;;89.68;;
56419;SDS011;42323;52.170;7.538;2024-02-28T06:14:50;89.80;;;83.80;;
56419;SDS011;42323;52.170;7.538;2024-02-28T06:17:16;98.57;;;76.72;;
56419;SDS011;42323;52.170;7.538;2024-02-28T06:19:43;90.78;;;84.07;;
56419;SDS011;42323;52.170;7.538;2024-02-28T06:22:09;88.80;;;82.50;;
56419;SDS011;42323;52.170;7.538;2024-02-28T06:24:36;92.25;;;85.40;;
56419;SDS011;42323;52.170;7.538;2024-02-28T06:27:02;96.45;;;79.30;;
56419;SDS011;42323;52.170;7.538;2024-02-28T06:29:30;92.93;;;86.07;;
56419;SDS011;42323;52.170;7.538;2024-02-28T06:31:57;87.03;;;80.82;;
56419;SDS011;42323;52.170;7.538;2024-02-28T06:34:27;86.47;;;80.50;;
56419;SDS011;42323;52.170;7.538;2024-02-28T06:36:53;93.32;;;86.38;;
56419;SDS011;42323;52.170;7.538;2024-02-28T06:39:20;89.07;;;82.53;;
56419;SDS011;42323;52.170;7.538;2024-02-28T06:41:46;92.43;;;83.10;;
56419;SDS011;42323;52.170;7.538;2024-02-28T06:44:13;82.15;;;75.70;;
56419;SDS011;42323;52.170;7.538;2024-02-28T06:46:39;115.78;;;88.55;;
56419;SDS011;42323;52.170;7.538;2024-02-28T06:49:05;88.07;;;81.20;;
56419;SDS011;42323;52.170;7.538;2024-02-28T06:51:32;91.35;;;82.88;;
56419;SDS011;42323;52.170;7.538;2024-02-28T06:53:58;83.65;;;77.70;;
56419;SDS011;42323;52.170;7.538;2024-02-28T06:56:25;85.85;;;79.55;;
56419;SDS011;42323;52.170;7.538;2024-02-28T06:58:51;89.47;;;79.72;;
56419;SDS011;42323;52.170;7.538;2024-02-28T07:01:18;89.15;;;82.35;;
56419;SDS011;42323;52.170;7.538;2024-02-28T07:03:45;90.43;;;83.93;;
56419;SDS011;42323;52.170;7.538;2024-02-28T07:06:11;88.50;;;82.25;;
56419;SDS011;42323;52.170;7.538;2024-02-28T07:08:38;97.50;;;90.47;;
56419;SDS011;42323;52.170;7.538;2024-02-28T07:11:04;87.55;;;81.05;;
56419;SDS011;42323;52.170;7.538;2024-02-28T07:13:31;87.53;;;80.90;;
56419;SDS011;42323;52.170;7.538;2024-02-28T07:15:57;88.35;;;81.93;;
56419;SDS011;42323;52.170;7.538;2024-02-28T07:18:24;92.82;;;86.13;;
56419;SDS011;42323;52.170;7.538;2024-02-28T07:20:56;93.00;;;86.22;;
56419;SDS011;42323;52.170;7.538;2024-02-28T07:23:22;89.10;;;82.70;;
56419;SDS011;42323;52.170;7.538;2024-02-28T07:25:48;102.68;;;81.72;;
56419;SDS011;42323;52.170;7.538;2024-02-28T07:28:15;90.85;;;83.80;;
56419;SDS011;42323;52.170;7.538;2024-02-28T07:30:41;91.57;;;84.28;;
56419;SDS011;42323;52.170;7.538;2024-02-28T07:33:10;89.65;;;83.13;;
56419;SDS011;42323;52.170;7.538;2024-02-28T07:35:54;91.85;;;85.13;;
56419;SDS011;42323;52.170;7.538;2024-02-28T07:38:21;93.40;;;86.60;;
56419;SDS011;42323;52.170;7.538;2024-02-28T07:40:47;91.40;;;84.68;;
56419;SDS011;42323;52.170;7.538;2024-02-28T07:43:14;96.00;;;88.80;;
56419;SDS011;42323;52.170;7.538;2024-02-28T07:45:40;93.47;;;86.63;;
56419;SDS011;42323;52.170;7.538;2024-02-28T07:48:07;93.20;;;85.93;;
56419;SDS011;42323;52.170;7.538;2024-02-28T07:50:34;94.03;;;87.07;;
56419;SDS011;42323;52.170;7.538;2024-02-28T07:53:00;93.82;;;85.57;;
56419;SDS011;42323;52.170;7.538;2024-02-28T07:55:26;95.18;;;87.93;;
56419;SDS011;42323;52.170;7.538;2024-02-28T07:57:53;93.43;;;86.32;;
56419;SDS011;42323;52.170;7.538;2024-02-28T08:00:20;99.10;;;90.57;;
56419;SDS011;42323;52.170;7.538;2024-02-28T08:02:46;93.70;;;86.38;;
56419;SDS011;42323;52.170;7.538;2024-02-28T08:05:13;90.10;;;82.78;;
56419;SDS011;42323;52.170;7.538;2024-02-28T08:07:41;94.13;;;86.72;;
56419;SDS011;42323;52.170;7.538;2024-02-28T08:10:08;93.60;;;86.35;;
56419;SDS011;42323;52.170;7.538;2024-02-28T08:12:36;93.03;;;85.53;;
56419;SDS011;42323;52.170;7.538;2024-02-28T08:15:03;92.47;;;85.38;;
56419;SDS011;42323;52.170;7.538;2024-02-28T08:17:30;104.28;;;93.10;;
56419;SDS011;42323;52.170;7.538;2024-02-28T08:19:56;104.97;;;96.68;;
56419;SDS011;42323;52.170;7.538;2024-02-28T08:22:22;111.18;;;99.63;;
56419;SDS011;42323;52.170;7.538;2024-02-28T08:24:51;110.85;;;101.03;;
56419;SDS011;42323;52.170;7.538;2024-02-28T08:27:18;113.00;;;102.82;;
56419;SDS011;42323;52.170;7.538;2024-02-28T08:29:44;112.88;;;102.82;;
56419;SDS011;42323;52.170;7.538;2024-02-28T08:32:11;127.07;;;104.57;;
56419;SDS011;42323;52.170;7.538;2024-02-28T08:34:38;131.05;;;102.45;;
56419;SDS011;42323;52.170;7.538;2024-02-28T08:37:04;129.07;;;103.68;;
56419;SDS011;42323;52.170;7.538;2024-02-28T08:39:31;137.70;;;92.50;;
56419;SDS011;42323;52.170;7.538;2024-02-28T08:41:57;125.57;;;91.53;;
56419;SDS011;42323;52.170;7.538;2024-02-28T08:44:24;108.85;;;89.00;;
56419;SDS011;42323;52.170;7.538;2024-02-28T08:46:50;115.22;;;90.93;;
56419;SDS011;42323;52.170;7.538;2024-02-28T08:49:16;140.70;;;100.05;;
56419;SDS011;42323;52.170;7.538;2024-02-28T08:51:43;143.65;;;103.95;;
56419;SDS011;42323;52.170;7.538;2024-02-28T08:54:11;153.73;;;108.47;;
56419;SDS011;42323;52.170;7.538;2024-02-28T08:56:38;159.23;;;111.70;;
56419;SDS011;42323;52.170;7.538;2024-02-28T08:59:14;155.73;;;109.05;;
56419;SDS011;42323;52.170;7.538;2024-02-28T09:01:41;152.07;;;107.07;;
56419;SDS011;42323;52.170;7.538;2024-02-28T09:04:07;152.52;;;106.57;;
56419;SDS011;42323;52.170;7.538;2024-02-28T09:06:34;150.13;;;105.18;;
56419;SDS011;42323;52.170;7.538;2024-02-28T09:09:00;155.27;;;105.72;;
56419;SDS011;42323;52.170;7.538;2024-02-28T09:11:27;151.90;;;105.43;;
56419;SDS011;42323;52.170;7.538;2024-02-28T09:13:53;165.52;;;103.75;;
56419;SDS011;42323;52.170;7.538;2024-02-28T09:16:21;155.90;;;104.18;;
56419;SDS011;42323;52.170;7.538;2024-02-28T09:18:47;154.05;;;105.03;;
56419;SDS011;42323;52.170;7.538;2024-02-28T09:21:14;167.32;;;103.72;;
56419;SDS011;42323;52.170;7.538;2024-02-28T09:23:41;156.75;;;104.57;;
56419;SDS011;42323;52.170;7.538;2024-02-28T09:26:08;167.75;;;106.40;;
56419;SDS011;42323;52.170;7.538;2024-02-28T09:28:34;174.20;;;110.40;;
56419;SDS011;42323;52.170;7.538;2024-02-28T09:31:00;171.00;;;106.75;;
56419;SDS011;42323;52.170;7.538;2024-02-28T09:33:30;160.77;;;104.47;;
56419;SDS011;42323;52.170;7.538;2024-02-28T09:35:57;151.48;;;101.97;;
56419;SDS011;42323;52.170;7.538;2024-02-28T09:38:23;157.20;;;99.97;;
56419;SDS011;42323;52.170;7.538;2024-02-28T09:40:50;152.07;;;95.65;;
56419;SDS011;42323;52.170;7.538;2024-02-28T09:43:19;170.80;;;101.95;;
56419;SDS011;42323;52.170;7.538;2024-02-28T09:45:50;185.65;;;116.47;;
56419;SDS011;42323;52.170;7.538;2024-02-28T09:48:17;198.18;;;122.85;;
56419;SDS011;42323;52.170;7.538;2024-02-28T09:50:45;326.20;;;195.55;;
56419;SDS011;42323;52.170;7.538;2024-02-28T09:53:11;149.52;;;97.38;;
56419;SDS011;42323;52.170;7.538;2024-02-28T09:55:38;149.30;;;99.35;;
56419;SDS011;42323;52.170;7.538;2024-02-28T09:58:04;159.45;;;100.53;;
56419;SDS011;42323;52.170;7.538;2024-02-28T10:00:31;169.52;;;104.38;;
56419;SDS011;42323;52.170;7.538;2024-02-28T10:02:59;166.40;;;105.45;;
56419;SDS011;42323;52.170;7.538;2024-02-28T10:05:27;171.38;;;103.90;;
56419;SDS011;42323;52.170;7.538;2024-02-28T10:07:55;153.82;;;100.00;;
56419;SDS011;42323;52.170;7.538;2024-02-28T10:10:21;154.38;;;95.18;;
56419;SDS011;42323;52.170;7.538;2024-02-28T10:12:48;176.25;;;105.63;;
56419;SDS011;42323;52.170;7.538;2024-02-28T10:15:14;178.43;;;108.22;;
56419;SDS011;42323;52.170;7.538;2024-02-28T10:17:41;172.20;;;107.28;;
56419;SDS011;42323;52.170;7.538;2024-02-28T10:20:07;174.50;;;104.07;;
56419;SDS011;42323;52.170;7.538;2024-02-28T10:22:36;172.32;;;104.93;;
56419;SDS011;42323;52.170;7.538;2024-02-28T10:25:02;152.50;;;97.78;;
56419;SDS011;42323;52.170;7.538;2024-02-28T10:27:33;152.27;;;97.45;;
56419;SDS011;42323;52.170;7.538;2024-02-28T10:30:00;145.32;;;95.63;;
56419;SDS011;42323;52.170;7.538;2024-02-28T10:32:31;145.88;;;95.43;;
56419;SDS011;42323;52.170;7.538;2024-02-28T10:35:00;156.00;;;99.40;;
56419;SDS011;42323;52.170;7.538;2024-02-28T10:37:26;155.60;;;98.13;;
56419;SDS011;42323;52.170;7.538;2024-02-28T10:39:55;171.80;;;103.95;;
56419;SDS011;42323;52.170;7.538;2024-02-28T10:42:22;227.02;;;125.97;;
56419;SDS011;42323;52.170;7.538;2024-02-28T10:44:53;243.93;;;133.95;;
56419;SDS011;42323;52.170;7.538;2024-02-28T10:47:40;244.02;;;135.88;;
56419;SDS011;42323;52.170;7.538;2024-02-28T10:50:07;240.57;;;134.15;;
56419;SDS011;42323;52.170;7.538;2024-02-28T10:52:34;241.80;;;134.40;;
56419;SDS011;42323;52.170;7.538;2024-02-28T10:55:01;252.52;;;134.82;;
56419;SDS011;42323;52.170;7.538;2024-02-28T10:57:28;246.70;;;133.40;;
56419;SDS011;42323;52.170;7.538;2024-02-28T10:59:55;247.50;;;134.68;;
56419;SDS011;42323;52.170;7.538;2024-02-28T11:02:22;259.27;;;138.52;;
56419;SDS011;42323;52.170;7.538;2024-02-28T11:04:52;257.20;;;138.77;;
56419;SDS011;42323;52.170;7.538;2024-02-28T11:07:19;265.30;;;144.15;;
56419;SDS011;42323;52.170;7.538;2024-02-28T11:09:47;260.02;;;140.13;;
56419;SDS011;42323;52.170;7.538;2024-02-28T11:14:59;284.48;;;146.75;;
56419;SDS011;42323;52.170;7.538;2024-02-28T11:17:27;273.00;;;143.98;;
56419;SDS011;42323;52.170;7.538;2024-02-28T11:19:54;264.23;;;140.25;;
56419;SDS011;42323;52.170;7.538;2024-02-28T11:22:21;254.73;;;137.75;;
56419;SDS011;42323;52.170;7.538;2024-02-28T11:24:47;254.48;;;139.32;;
56419;SDS011;42323;52.170;7.538;2024-02-28T11:27:17;244.80;;;132.35;;
56419;SDS011;42323;52.170;7.538;2024-02-28T11:29:43;265.95;;;140.95;;
56419;SDS011;42323;52.170;7.538;2024-02-28T11:32:13;254.85;;;137.13;;
56419;SDS011;42323;52.170;7.538;2024-02-28T11:34:40;264.33;;;139.80;;
56419;SDS011;42323;52.170;7.538;2024-02-28T11:37:08;266.42;;;142.18;;
56419;SDS011;42323;52.170;7.538;2024-02-28T11:39:35;271.35;;;141.20;;
56419;SDS011;42323;52.170;7.538;2024-02-28T11:42:12;258.70;;;139.18;;
56419;SDS011;42323;52.170;7.538;2024-02-28T11:44:42;269.67;;;139.63;;
56419;SDS011;42323;52.170;7.538;2024-02-28T11:47:09;243.07;;;133.65;;
56419;SDS011;42323;52.170;7.538;2024-02-28T11:49:37;255.40;;;136.75;;
56419;SDS011;42323;52.170;7.538;2024-02-28T11:52:04;249.10;;;137.35;;
56419;SDS011;42323;52.170;7.538;2024-02-28T11:54:30;244.40;;;134.45;;
56419;SDS011;42323;52.170;7.538;2024-02-28T11:56:57;251.80;;;136.63;;
56419;SDS011;42323;52.170;7.538;2024-02-28T11:59:25;247.13;;;134.20;;
56419;SDS011;42323;52.170;7.538;2024-02-28T12:01:52;230.25;;;130.43;;
56419;SDS011;42323;52.170;7.538;2024-02-28T12:04:19;239.38;;;131.13;;
56419;SDS011;42323;52.170;7.538;2024-02-28T12:06:45;221.18;;;128.77;;
56419;SDS011;42323;52.170;7.538;2024-02-28T12:09:12;228.35;;;128.48;;
56419;SDS011;42323;52.170;7.538;2024-02-28T12:11:50;213.95;;;124.38;;
56419;SDS011;42323;52.170;7.538;2024-02-28T12:14:16;216.68;;;125.38;;
56419;SDS011;42323;52.170;7.538;2024-02-28T12:16:43;208.77;;;122.55;;
56419;SDS011;42323;52.170;7.538;2024-02-28T12:19:11;226.30;;;127.97;;
56419;SDS011;42323;52.170;7.538;2024-02-28T12:21:37;206.75;;;123.10;;
56419;SDS011;42323;52.170;7.538;2024-02-28T12:24:05;210.23;;;123.82;;
56419;SDS011;42323;52.170;7.538;2024-02-28T12:26:33;205.27;;;120.53;;
56419;SDS011;42323;52.170;7.538;2024-02-28T12:28:59;210.25;;;121.35;;
56419;SDS011;42323;52.170;7.538;2024-02-28T12:31:27;212.23;;;120.97;;
56419;SDS011;42323;52.170;7.538;2024-02-28T12:33:54;208.18;;;120.60;;
56419;SDS011;42323;52.170;7.538;2024-02-28T12:36:20;203.95;;;118.30;;
56419;SDS011;42323;52.170;7.538;2024-02-28T12:38:47;206.52;;;120.25;;
56419;SDS011;42323;52.170;7.538;2024-02-28T12:41:14;207.43;;;123.05;;
56419;SDS011;42323;52.170;7.538;2024-02-28T12:43:41;205.40;;;122.22;;
56419;SDS011;42323;52.170;7.538;2024-02-28T12:46:08;208.85;;;117.55;;
56419;SDS011;42323;52.170;7.538;2024-02-28T12:48:38;206.25;;;119.35;;
56419;SDS011;42323;52.170;7.538;2024-02-28T12:51:05;208.18;;;120.68;;
56419;SDS011;42323;52.170;7.538;2024-02-28T12:53:34;205.18;;;121.47;;
56419;SDS011;42323;52.170;7.538;2024-02-28T12:56:01;201.63;;;122.38;;
56419;SDS011;42323;52.170;7.538;2024-02-28T12:58:27;205.43;;;120.07;;
56419;SDS011;42323;52.170;7.538;2024-02-28T13:00:54;190.60;;;114.18;;
56419;SDS011;42323;52.170;7.538;2024-02-28T13:03:20;196.52;;;114.75;;
56419;SDS011;42323;52.170;7.538;2024-02-28T13:05:47;199.85;;;116.75;;
56419;SDS011;42323;52.170;7.538;2024-02-28T13:08:13;186.48;;;112.18;;
56419;SDS011;42323;52.170;7.538;2024-02-28T13:10:40;180.77;;;110.90;;
56419;SDS011;42323;52.170;7.538;2024-02-28T13:13:07;186.27;;;113.35;;
56419;SDS011;42323;52.170;7.538;2024-02-28T13:15:34;186.15;;;113.00;;
56419;SDS011;42323;52.170;7.538;2024-02-28T13:18:00;184.95;;;111.93;;
56419;SDS011;42323;52.170;7.538;2024-02-28T13:20:28;178.23;;;109.90;;
56419;SDS011;42323;52.170;7.538;2024-02-28T13:22:54;186.63;;;113.13;;
56419;SDS011;42323;52.170;7.538;2024-02-28T13:25:21;189.52;;;114.95;;
56419;SDS011;42323;52.170;7.538;2024-02-28T13:27:47;188.45;;;111.70;;
56419;SDS011;42323;52.170;7.538;2024-02-28T13:30:14;180.73;;;109.25;;
56419;SDS011;42323;52.170;7.538;2024-02-28T13:32:41;177.55;;;109.93;;
56419;SDS011;42323;52.170;7.538;2024-02-28T13:35:08;174.98;;;108.45;;
56419;SDS011;42323;52.170;7.538;2024-02-28T13:37:34;170.68;;;106.35;;
56419;SDS011;42323;52.170;7.538;2024-02-28T13:40:01;175.43;;;106.88;;
56419;SDS011;42323;52.170;7.538;2024-02-28T13:42:27;182.68;;;108.40;;
56419;SDS011;42323;52.170;7.538;2024-02-28T13:44:54;189.60;;;112.03;;
56419;SDS011;42323;52.170;7.538;2024-02-28T13:47:21;185.80;;;112.03;;
56419;SDS011;42323;52.170;7.538;2024-02-28T13:49:48;180.73;;;107.25;;
56419;SDS011;42323;52.170;7.538;2024-02-28T13:52:16;169.15;;;103.90;;
56419;SDS011;42323;52.170;7.538;2024-02-28T13:54:42;173.98;;;105.72;;
56419;SDS011;42323;52.170;7.538;2024-02-28T13:57:09;170.23;;;105.20;;
56419;SDS011;42323;52.170;7.538;2024-02-28T13:59:37;170.05;;;107.32;;
56419;SDS011;42323;52.170;7.538;2024-02-28T14:02:03;161.52;;;103.20;;
56419;SDS011;42323;52.170;7.538;2024-02-28T14:04:30;178.00;;;106.68;;